Accueil
METAR-TAF:

METAR-TAF

Aéroports :

Base aérienne de Batajnica

Batajnica, Serbie

latitude: 44-56-07N, longitude: 020-15-27E, altitude: 86 m

Observation

Le bulletin a été fait il y a 37 minutes, à 00:00 UTC
Vent calme
Température 19°C
Humidité 83%
Pression 1013 hPa
Visibilité 10 km ou plus
pas de nuages en-dessous de 1500 mètres et pas de cumulonimbus.

METAR: LYBT 040000Z 00000KT CAVOK 19/16 Q1013 NOSIG

Heure: 02:37 (00:37 UTC)

Prévision

Le bulletin a été fait il y a 1 heure et 37 minutes, à 23:00 UTC
Prévision valable du 04 à 00 UTC au 04 à 24 UTC
Vent 5 kt de nord-est
Visibilité 10 km ou plus
pas de nuages en-dessous de 1500 mètres et pas de cumulonimbus.

TAF: LYBT 032300Z 0400/0424 04005KT CAVOK TX32/0413Z TN18/0403Z

Observations et prévisions météorologiques de plus de 4000 aéroports (messages METAR et TAF).

Les stations disponibles sont représentées par des disques jaunes et rouges sur la carte.

Passer la souris dessus pour voir le nom de la station.

Cliquer dessus pour voir les observations et prévisions météorologiques.

Pour changer de carte: cliquez sur les boutons verts avec une croix noire pour zoomer, sur le bouton vert avec un tiret pour effectuer un zoom arrière, ou sur les flèches vertes pour les cartes adjacentes.


METAR-TAF: